Terminal Aerodrome Forecast
Issued by NWS

Home | Current Version | Previous Version | Text Only | Print | Product List | Glossary On
Versions: 1 2 3 4 5 6 7 8 9 10 11 12 13 14 15 16 17 18 19
000
FTUS43 KILX 232100 AAA
TAFDEC
TAF AMD
KDEC 232157Z 2322/2418 03012G18KT P6SM SCT045
     FM240100 03009KT P6SM FEW050
     FM240300 03007KT P6SM SKC
     FM241500 04008KT P6SM SCT040
      AMD NOT SKED 2403/2411=

USA.gov is the U.S. government's official web portal to all federal, state and local government web resources and services.